sensor_id;sensor_type;location;lat;lon;timestamp;pressure;altitude;pressure_sealevel;temperature;humidity
38038;BME280;23843;51.320;12.340;2022-10-31T05:31:06;100907.84;;;11.14;88.22
38038;BME280;23843;51.320;12.340;2022-10-31T05:33:31;100900.94;;;11.10;88.96
38038;BME280;23843;51.320;12.340;2022-10-31T05:35:57;100904.50;;;11.09;88.95
38038;BME280;23843;51.320;12.340;2022-10-31T05:38:22;100906.25;;;11.10;88.09
38038;BME280;23843;51.320;12.340;2022-10-31T05:40:48;100909.06;;;11.07;88.08
38038;BME280;23843;51.320;12.340;2022-10-31T05:43:13;100905.53;;;11.07;87.94
38038;BME280;23843;51.320;12.340;2022-10-31T05:45:38;100911.72;;;11.07;87.65
38038;BME280;23843;51.320;12.340;2022-10-31T05:48:05;100908.28;;;11.05;88.10
38038;BME280;23843;51.320;12.340;2022-10-31T05:50:31;100909.28;;;11.03;88.36
38038;BME280;23843;51.320;12.340;2022-10-31T05:52:58;100907.53;;;11.02;88.57
38038;BME280;23843;51.320;12.340;2022-10-31T05:55:24;100908.41;;;11.02;88.74
38038;BME280;23843;51.320;12.340;2022-10-31T05:57:51;100910.19;;;11.02;88.38
38038;BME280;23843;51.320;12.340;2022-10-31T06:00:17;100908.53;;;10.99;88.28
38038;BME280;23843;51.320;12.340;2022-10-31T06:02:42;100906.84;;;10.98;87.93
38038;BME280;23843;51.320;12.340;2022-10-31T06:05:09;100916.59;;;10.98;88.23
38038;BME280;23843;51.320;12.340;2022-10-31T06:07:35;100913.19;;;10.94;88.54
38038;BME280;23843;51.320;12.340;2022-10-31T06:10:02;100920.34;;;10.92;88.96
38038;BME280;23843;51.320;12.340;2022-10-31T06:12:28;100916.06;;;10.89;89.03
38038;BME280;23843;51.320;12.340;2022-10-31T06:14:53;100921.25;;;10.92;89.05
38038;BME280;23843;51.320;12.340;2022-10-31T06:17:19;100922.88;;;10.95;89.17
38038;BME280;23843;51.320;12.340;2022-10-31T06:19:44;100925.44;;;10.97;89.51
38038;BME280;23843;51.320;12.340;2022-10-31T06:22:11;100926.31;;;10.97;89.00
38038;BME280;23843;51.320;12.340;2022-10-31T06:24:36;100928.03;;;10.98;89.23
38038;BME280;23843;51.320;12.340;2022-10-31T06:27:02;100932.34;;;11.01;88.51
38038;BME280;23843;51.320;12.340;2022-10-31T06:29:29;100934.78;;;11.05;88.58
38038;BME280;23843;51.320;12.340;2022-10-31T06:31:55;100938.06;;;11.10;88.72
38038;BME280;23843;51.320;12.340;2022-10-31T06:34:20;100937.84;;;11.15;88.37
38038;BME280;23843;51.320;12.340;2022-10-31T06:36:46;100938.56;;;11.19;88.48
38038;BME280;23843;51.320;12.340;2022-10-31T06:39:12;100940.94;;;11.25;88.22
38038;BME280;23843;51.320;12.340;2022-10-31T06:41:38;100947.66;;;11.32;88.24
38038;BME280;23843;51.320;12.340;2022-10-31T06:44:04;100957.06;;;11.39;88.30
38038;BME280;23843;51.320;12.340;2022-10-31T06:46:29;100953.31;;;11.43;87.63
38038;BME280;23843;51.320;12.340;2022-10-31T06:48:54;100950.38;;;11.49;87.53
38038;BME280;23843;51.320;12.340;2022-10-31T06:51:20;100951.78;;;11.56;87.81
38038;BME280;23843;51.320;12.340;2022-10-31T06:53:45;100962.03;;;11.64;87.73
38038;BME280;23843;51.320;12.340;2022-10-31T06:56:12;100956.19;;;11.75;87.56
38038;BME280;23843;51.320;12.340;2022-10-31T06:58:37;100962.13;;;11.80;87.54
38038;BME280;23843;51.320;12.340;2022-10-31T07:01:03;100961.47;;;11.94;87.61
38038;BME280;23843;51.320;12.340;2022-10-31T07:03:28;100966.09;;;12.08;87.39
38038;BME280;23843;51.320;12.340;2022-10-31T07:05:54;100963.50;;;12.24;87.52
38038;BME280;23843;51.320;12.340;2022-10-31T07:08:20;100971.72;;;12.36;87.46
38038;BME280;23843;51.320;12.340;2022-10-31T07:10:51;100967.41;;;12.51;87.52
38038;BME280;23843;51.320;12.340;2022-10-31T07:13:18;100964.00;;;12.65;86.76
38038;BME280;23843;51.320;12.340;2022-10-31T07:15:44;100968.06;;;12.72;85.88
38038;BME280;23843;51.320;12.340;2022-10-31T07:18:11;100971.94;;;12.82;85.72
38038;BME280;23843;51.320;12.340;2022-10-31T07:20:37;100979.00;;;12.99;84.76
38038;BME280;23843;51.320;12.340;2022-10-31T07:23:02;100973.72;;;13.15;84.41
38038;BME280;23843;51.320;12.340;2022-10-31T07:25:28;100987.66;;;13.36;83.99
38038;BME280;23843;51.320;12.340;2022-10-31T07:27:54;100983.97;;;13.70;82.76
38038;BME280;23843;51.320;12.340;2022-10-31T07:30:21;100985.34;;;14.08;80.53
38038;BME280;23843;51.320;12.340;2022-10-31T07:32:47;100985.16;;;14.11;81.02
38038;BME280;23843;51.320;12.340;2022-10-31T07:35:17;100989.34;;;14.45;79.80
38038;BME280;23843;51.320;12.340;2022-10-31T07:37:43;100981.63;;;14.85;78.62
38038;BME280;23843;51.320;12.340;2022-10-31T07:40:09;100991.72;;;14.94;77.47
38038;BME280;23843;51.320;12.340;2022-10-31T07:42:35;100984.47;;;15.11;76.28
38038;BME280;23843;51.320;12.340;2022-10-31T07:45:00;100991.13;;;15.18;75.63
38038;BME280;23843;51.320;12.340;2022-10-31T07:47:27;100987.50;;;15.19;75.96
38038;BME280;23843;51.320;12.340;2022-10-31T07:49:52;100986.44;;;15.36;76.41
38038;BME280;23843;51.320;12.340;2022-10-31T07:52:18;100977.47;;;15.37;75.34
38038;BME280;23843;51.320;12.340;2022-10-31T07:54:43;100984.41;;;15.54;75.53
38038;BME280;23843;51.320;12.340;2022-10-31T07:57:08;100978.84;;;15.71;75.27
38038;BME280;23843;51.320;12.340;2022-10-31T07:59:34;100977.47;;;15.78;73.78
38038;BME280;23843;51.320;12.340;2022-10-31T08:01:59;100976.47;;;15.94;74.02
38038;BME280;23843;51.320;12.340;2022-10-31T08:04:26;100983.66;;;16.06;73.68
38038;BME280;23843;51.320;12.340;2022-10-31T08:06:51;100984.75;;;16.16;72.76
38038;BME280;23843;51.320;12.340;2022-10-31T08:09:17;100978.03;;;16.23;72.08
38038;BME280;23843;51.320;12.340;2022-10-31T08:11:42;100973.75;;;16.34;72.44
38038;BME280;23843;51.320;12.340;2022-10-31T08:14:07;100983.41;;;16.49;72.05
38038;BME280;23843;51.320;12.340;2022-10-31T08:16:33;100977.63;;;16.55;70.99
38038;BME280;23843;51.320;12.340;2022-10-31T08:18:58;100989.22;;;16.68;71.70
38038;BME280;23843;51.320;12.340;2022-10-31T08:21:25;100976.13;;;16.77;70.99
38038;BME280;23843;51.320;12.340;2022-10-31T08:23:50;100980.66;;;16.89;69.67
38038;BME280;23843;51.320;12.340;2022-10-31T08:26:16;100971.31;;;16.95;69.67
38038;BME280;23843;51.320;12.340;2022-10-31T08:28:41;100976.47;;;17.10;69.65
38038;BME280;23843;51.320;12.340;2022-10-31T08:31:12;100977.19;;;17.25;68.40
38038;BME280;23843;51.320;12.340;2022-10-31T08:33:38;100971.03;;;17.36;68.39
38038;BME280;23843;51.320;12.340;2022-10-31T08:36:03;100976.06;;;17.41;69.40
38038;BME280;23843;51.320;12.340;2022-10-31T08:38:30;100976.03;;;17.53;69.58
38038;BME280;23843;51.320;12.340;2022-10-31T08:40:55;100974.91;;;17.69;68.47
38038;BME280;23843;51.320;12.340;2022-10-31T08:43:21;100980.13;;;17.83;68.71
38038;BME280;23843;51.320;12.340;2022-10-31T08:45:48;100973.00;;;17.95;68.60
38038;BME280;23843;51.320;12.340;2022-10-31T08:48:14;100971.91;;;17.98;66.58
38038;BME280;23843;51.320;12.340;2022-10-31T08:50:41;100968.63;;;18.05;66.46
38038;BME280;23843;51.320;12.340;2022-10-31T08:53:09;100971.91;;;18.09;67.05
38038;BME280;23843;51.320;12.340;2022-10-31T08:55:38;100973.91;;;18.18;68.22
38038;BME280;23843;51.320;12.340;2022-10-31T08:58:05;100974.06;;;18.28;68.39
38038;BME280;23843;51.320;12.340;2022-10-31T09:00:31;100974.81;;;18.30;65.38
38038;BME280;23843;51.320;12.340;2022-10-31T09:02:56;100978.69;;;18.26;65.77
38038;BME280;23843;51.320;12.340;2022-10-31T09:05:22;100977.59;;;18.28;66.71
38038;BME280;23843;51.320;12.340;2022-10-31T09:07:47;100977.00;;;18.36;66.31
38038;BME280;23843;51.320;12.340;2022-10-31T09:10:13;100976.66;;;18.40;66.90
38038;BME280;23843;51.320;12.340;2022-10-31T09:12:39;100973.63;;;18.45;68.24
38038;BME280;23843;51.320;12.340;2022-10-31T09:15:06;100966.41;;;18.46;67.36
38038;BME280;23843;51.320;12.340;2022-10-31T09:17:31;100964.13;;;18.52;67.80
38038;BME280;23843;51.320;12.340;2022-10-31T09:19:56;100965.09;;;18.63;67.64
38038;BME280;23843;51.320;12.340;2022-10-31T09:22:22;100955.84;;;18.67;67.76
38038;BME280;23843;51.320;12.340;2022-10-31T09:24:47;100961.25;;;18.78;68.81
38038;BME280;23843;51.320;12.340;2022-10-31T09:27:13;100964.94;;;18.88;69.24
38038;BME280;23843;51.320;12.340;2022-10-31T09:29:40;100959.53;;;18.99;68.07
38038;BME280;23843;51.320;12.340;2022-10-31T09:32:05;100953.69;;;19.06;68.34
38038;BME280;23843;51.320;12.340;2022-10-31T09:34:31;100954.53;;;19.17;68.51
38038;BME280;23843;51.320;12.340;2022-10-31T09:36:56;100956.09;;;19.31;68.77
38038;BME280;23843;51.320;12.340;2022-10-31T09:39:21;100947.91;;;19.33;67.71
38038;BME280;23843;51.320;12.340;2022-10-31T09:42:05;100946.44;;;19.29;67.21
38038;BME280;23843;51.320;12.340;2022-10-31T09:44:43;100948.06;;;19.20;68.16
38038;BME280;23843;51.320;12.340;2022-10-31T09:47:24;100947.44;;;19.16;68.93
38038;BME280;23843;51.320;12.340;2022-10-31T09:50:02;100936.47;;;19.19;69.53
38038;BME280;23843;51.320;12.340;2022-10-31T09:52:33;100941.59;;;19.22;69.12
38038;BME280;23843;51.320;12.340;2022-10-31T09:55:02;100937.91;;;19.23;69.20
38038;BME280;23843;51.320;12.340;2022-10-31T09:57:32;100947.22;;;19.19;68.61
38038;BME280;23843;51.320;12.340;2022-10-31T10:00:01;100937.81;;;19.14;69.42
38038;BME280;23843;51.320;12.340;2022-10-31T10:02:30;100933.31;;;19.14;69.06
38038;BME280;23843;51.320;12.340;2022-10-31T10:04:59;100937.47;;;19.07;69.27
38038;BME280;23843;51.320;12.340;2022-10-31T10:07:32;100937.69;;;19.04;69.90
38038;BME280;23843;51.320;12.340;2022-10-31T10:10:02;100938.19;;;18.98;69.91
38038;BME280;23843;51.320;12.340;2022-10-31T10:12:44;100936.13;;;18.90;69.47
38038;BME280;23843;51.320;12.340;2022-10-31T10:15:27;100931.88;;;18.88;70.50
38038;BME280;23843;51.320;12.340;2022-10-31T10:18:05;100933.69;;;18.98;70.91
38038;BME280;23843;51.320;12.340;2022-10-31T10:20:40;100925.38;;;19.13;70.17
38038;BME280;23843;51.320;12.340;2022-10-31T10:23:27;100929.84;;;19.23;70.59
38038;BME280;23843;51.320;12.340;2022-10-31T10:26:00;100930.09;;;19.32;70.64
38038;BME280;23843;51.320;12.340;2022-10-31T10:28:30;100938.38;;;19.40;69.56
38038;BME280;23843;51.320;12.340;2022-10-31T10:31:01;100927.13;;;19.46;68.81
38038;BME280;23843;51.320;12.340;2022-10-31T10:33:32;100939.56;;;19.47;69.84
38038;BME280;23843;51.320;12.340;2022-10-31T10:36:03;100928.56;;;19.50;69.64
38038;BME280;23843;51.320;12.340;2022-10-31T10:38:34;100934.19;;;19.58;70.07
38038;BME280;23843;51.320;12.340;2022-10-31T10:41:03;100926.59;;;19.63;69.52
38038;BME280;23843;51.320;12.340;2022-10-31T10:43:33;100934.66;;;19.63;69.52
38038;BME280;23843;51.320;12.340;2022-10-31T10:46:13;100929.78;;;19.57;68.60
38038;BME280;23843;51.320;12.340;2022-10-31T10:48:43;100928.34;;;19.53;69.49
38038;BME280;23843;51.320;12.340;2022-10-31T10:51:18;100920.50;;;19.50;71.10
38038;BME280;23843;51.320;12.340;2022-10-31T10:53:57;100913.06;;;19.54;71.38
38038;BME280;23843;51.320;12.340;2022-10-31T10:56:33;100910.84;;;19.59;71.21
38038;BME280;23843;51.320;12.340;2022-10-31T10:59:03;100908.28;;;19.69;70.69
38038;BME280;23843;51.320;12.340;2022-10-31T11:01:29;100906.78;;;19.76;69.95
38038;BME280;23843;51.320;12.340;2022-10-31T11:03:55;100905.41;;;19.81;69.85
38038;BME280;23843;51.320;12.340;2022-10-31T11:06:22;100901.31;;;19.87;69.94
38038;BME280;23843;51.320;12.340;2022-10-31T11:08:48;100905.19;;;19.94;70.22
38038;BME280;23843;51.320;12.340;2022-10-31T11:11:25;100903.84;;;20.00;69.57
38038;BME280;23843;51.320;12.340;2022-10-31T11:13:57;100897.22;;;20.04;70.08
38038;BME280;23843;51.320;12.340;2022-10-31T11:16:31;100899.66;;;20.07;69.82
38038;BME280;23843;51.320;12.340;2022-10-31T11:19:07;100889.94;;;19.95;68.55
38038;BME280;23843;51.320;12.340;2022-10-31T11:21:33;100891.75;;;19.94;69.45
38038;BME280;23843;51.320;12.340;2022-10-31T11:24:03;100891.63;;;19.96;69.63
38038;BME280;23843;51.320;12.340;2022-10-31T11:26:28;100888.84;;;19.97;69.94
38038;BME280;23843;51.320;12.340;2022-10-31T11:28:58;100886.59;;;20.02;69.27
38038;BME280;23843;51.320;12.340;2022-10-31T11:31:24;100882.44;;;19.98;69.31
38038;BME280;23843;51.320;12.340;2022-10-31T11:33:57;100881.72;;;19.96;69.11
38038;BME280;23843;51.320;12.340;2022-10-31T11:36:25;100871.13;;;19.95;70.05
38038;BME280;23843;51.320;12.340;2022-10-31T11:38:51;100877.34;;;19.95;70.78
38038;BME280;23843;51.320;12.340;2022-10-31T11:41:19;100875.63;;;19.94;70.08
38038;BME280;23843;51.320;12.340;2022-10-31T11:43:50;100870.63;;;19.89;70.31
38038;BME280;23843;51.320;12.340;2022-10-31T11:46:20;100871.50;;;19.90;70.62
38038;BME280;23843;51.320;12.340;2022-10-31T11:48:48;100866.13;;;19.90;70.52
38038;BME280;23843;51.320;12.340;2022-10-31T11:51:21;100867.81;;;19.91;70.30
38038;BME280;23843;51.320;12.340;2022-10-31T11:53:51;100871.25;;;19.93;69.53
38038;BME280;23843;51.320;12.340;2022-10-31T11:56:16;100858.19;;;19.88;68.26
38038;BME280;23843;51.320;12.340;2022-10-31T11:58:42;100855.63;;;19.87;68.70
38038;BME280;23843;51.320;12.340;2022-10-31T12:01:23;100850.25;;;19.87;69.83
38038;BME280;23843;51.320;12.340;2022-10-31T12:03:54;100854.91;;;19.85;70.40
38038;BME280;23843;51.320;12.340;2022-10-31T12:06:29;100851.13;;;19.87;70.61
38038;BME280;23843;51.320;12.340;2022-10-31T12:08:56;100852.53;;;19.92;70.63
38038;BME280;23843;51.320;12.340;2022-10-31T12:11:43;100845.19;;;19.94;70.04
38038;BME280;23843;51.320;12.340;2022-10-31T12:14:20;100844.09;;;19.96;69.71
38038;BME280;23843;51.320;12.340;2022-10-31T12:16:52;100840.53;;;19.96;70.10
38038;BME280;23843;51.320;12.340;2022-10-31T12:19:28;100840.53;;;19.96;70.02
38038;BME280;23843;51.320;12.340;2022-10-31T12:22:05;100840.75;;;19.83;68.65
38038;BME280;23843;51.320;12.340;2022-10-31T12:24:42;100840.28;;;19.78;68.78
38038;BME280;23843;51.320;12.340;2022-10-31T12:27:20;100844.22;;;19.74;68.85
38038;BME280;23843;51.320;12.340;2022-10-31T12:30:01;100837.34;;;19.81;70.17
38038;BME280;23843;51.320;12.340;2022-10-31T12:32:33;100826.63;;;19.70;69.09
38038;BME280;23843;51.320;12.340;2022-10-31T12:35:23;100822.72;;;19.74;69.45
38038;BME280;23843;51.320;12.340;2022-10-31T12:38:08;100819.91;;;19.75;68.80
38038;BME280;23843;51.320;12.340;2022-10-31T12:40:46;100819.75;;;19.77;69.48
38038;BME280;23843;51.320;12.340;2022-10-31T12:43:28;100814.97;;;19.80;69.16
38038;BME280;23843;51.320;12.340;2022-10-31T12:45:58;100811.56;;;19.78;69.04
38038;BME280;23843;51.320;12.340;2022-10-31T12:49:04;100804.06;;;19.82;69.24
38038;BME280;23843;51.320;12.340;2022-10-31T12:51:39;100800.44;;;19.83;68.94
38038;BME280;23843;51.320;12.340;2022-10-31T12:54:21;100796.78;;;19.73;68.85
38038;BME280;23843;51.320;12.340;2022-10-31T12:56:57;100792.75;;;19.78;69.73
38038;BME280;23843;51.320;12.340;2022-10-31T12:59:30;100788.94;;;19.81;68.97
38038;BME280;23843;51.320;12.340;2022-10-31T13:02:01;100790.19;;;19.77;68.58
38038;BME280;23843;51.320;12.340;2022-10-31T13:04:38;100785.34;;;19.71;68.56
38038;BME280;23843;51.320;12.340;2022-10-31T13:07:09;100790.97;;;19.67;69.44
38038;BME280;23843;51.320;12.340;2022-10-31T13:09:41;100780.94;;;19.70;69.78
38038;BME280;23843;51.320;12.340;2022-10-31T13:12:10;100781.09;;;19.68;69.33
38038;BME280;23843;51.320;12.340;2022-10-31T13:14:39;100783.50;;;19.71;70.10
38038;BME280;23843;51.320;12.340;2022-10-31T13:17:09;100783.03;;;19.66;69.85
38038;BME280;23843;51.320;12.340;2022-10-31T13:19:41;100778.50;;;19.66;70.28
38038;BME280;23843;51.320;12.340;2022-10-31T13:22:12;100782.66;;;19.71;70.20
38038;BME280;23843;51.320;12.340;2022-10-31T13:24:43;100775.28;;;19.73;70.08
38038;BME280;23843;51.320;12.340;2022-10-31T13:27:14;100778.97;;;19.72;70.00
38038;BME280;23843;51.320;12.340;2022-10-31T13:29:50;100775.91;;;19.65;70.39
38038;BME280;23843;51.320;12.340;2022-10-31T13:32:21;100769.97;;;19.61;70.55
38038;BME280;23843;51.320;12.340;2022-10-31T13:34:51;100778.53;;;19.55;70.86
38038;BME280;23843;51.320;12.340;2022-10-31T13:37:26;100761.47;;;19.56;71.14
38038;BME280;23843;51.320;12.340;2022-10-31T13:40:08;100768.78;;;19.54;71.28
38038;BME280;23843;51.320;12.340;2022-10-31T13:42:46;100765.66;;;19.49;71.57
38038;BME280;23843;51.320;12.340;2022-10-31T13:45:16;100759.09;;;19.42;72.19
38038;BME280;23843;51.320;12.340;2022-10-31T13:47:42;100762.75;;;19.41;72.33
38038;BME280;23843;51.320;12.340;2022-10-31T13:50:19;100764.19;;;19.45;72.27
38038;BME280;23843;51.320;12.340;2022-10-31T13:52:45;100757.69;;;19.48;72.27
38038;BME280;23843;51.320;12.340;2022-10-31T13:55:41;100749.25;;;19.52;72.08
38038;BME280;23843;51.320;12.340;2022-10-31T13:58:25;100749.19;;;19.42;71.70
38038;BME280;23843;51.320;12.340;2022-10-31T14:01:15;100748.34;;;19.42;71.82
38038;BME280;23843;51.320;12.340;2022-10-31T14:03:44;100743.47;;;19.36;71.97
38038;BME280;23843;51.320;12.340;2022-10-31T14:06:11;100747.44;;;19.32;71.48
38038;BME280;23843;51.320;12.340;2022-10-31T14:08:40;100747.66;;;19.29;72.17
38038;BME280;23843;51.320;12.340;2022-10-31T14:11:20;100739.47;;;19.30;71.92
38038;BME280;23843;51.320;12.340;2022-10-31T14:13:48;100748.78;;;19.26;71.78
38038;BME280;23843;51.320;12.340;2022-10-31T14:16:22;100738.28;;;19.23;71.93
38038;BME280;23843;51.320;12.340;2022-10-31T14:18:50;100734.88;;;19.21;72.13
38038;BME280;23843;51.320;12.340;2022-10-31T14:21:27;100730.63;;;19.18;71.73
38038;BME280;23843;51.320;12.340;2022-10-31T14:23:53;100734.31;;;19.17;72.07
38038;BME280;23843;51.320;12.340;2022-10-31T14:26:32;100725.53;;;19.15;71.86
38038;BME280;23843;51.320;12.340;2022-10-31T14:28:59;100724.91;;;19.12;71.74
38038;BME280;23843;51.320;12.340;2022-10-31T14:31:31;100724.34;;;19.08;71.96
38038;BME280;23843;51.320;12.340;2022-10-31T14:33:57;100722.63;;;19.07;72.05
38038;BME280;23843;51.320;12.340;2022-10-31T14:36:28;100716.66;;;19.03;71.94
38038;BME280;23843;51.320;12.340;2022-10-31T14:39:02;100710.44;;;19.03;72.00
38038;BME280;23843;51.320;12.340;2022-10-31T14:41:47;100706.56;;;18.96;71.93
38038;BME280;23843;51.320;12.340;2022-10-31T14:44:36;100701.19;;;18.96;72.29
38038;BME280;23843;51.320;12.340;2022-10-31T14:47:24;100702.56;;;18.90;72.41
38038;BME280;23843;51.320;12.340;2022-10-31T14:50:32;100696.47;;;18.88;72.63
38038;BME280;23843;51.320;12.340;2022-10-31T14:53:37;100700.53;;;18.83;
38038;BME280;23843;51.320;12.340;2022-10-31T14:56:20;100694.44;;;18.80;72.83
38038;BME280;23843;51.320;12.340;2022-10-31T14:59:08;100686.63;;;18.77;72.90
38038;BME280;23843;51.320;12.340;2022-10-31T15:01:35;100686.84;;;18.74;73.30
38038;BME280;23843;51.320;12.340;2022-10-31T15:04:05;100686.63;;;18.66;73.91
38038;BME280;23843;51.320;12.340;2022-10-31T15:06:40;100687.97;;;18.60;74.08
38038;BME280;23843;51.320;12.340;2022-10-31T15:09:21;100687.66;;;18.54;75.00
38038;BME280;23843;51.320;12.340;2022-10-31T15:11:46;100687.19;;;18.49;74.67
38038;BME280;23843;51.320;12.340;2022-10-31T15:14:22;100687.31;;;18.47;75.43
38038;BME280;23843;51.320;12.340;2022-10-31T15:16:48;100684.03;;;18.44;75.50
38038;BME280;23843;51.320;12.340;2022-10-31T15:19:16;100679.88;;;18.39;75.76
38038;BME280;23843;51.320;12.340;2022-10-31T15:21:45;100685.50;;;18.36;75.39
38038;BME280;23843;51.320;12.340;2022-10-31T15:24:13;100681.25;;;18.34;76.21
38038;BME280;23843;51.320;12.340;2022-10-31T15:26:43;100677.94;;;18.30;76.74
38038;BME280;23843;51.320;12.340;2022-10-31T15:29:13;100668.44;;;18.26;76.38
38038;BME280;23843;51.320;12.340;2022-10-31T15:31:49;100677.47;;;18.25;76.37
38038;BME280;23843;51.320;12.340;2022-10-31T15:34:20;100675.28;;;18.19;76.33
38038;BME280;23843;51.320;12.340;2022-10-31T15:36:47;100676.53;;;18.15;76.86
38038;BME280;23843;51.320;12.340;2022-10-31T15:39:13;100670.78;;;18.08;76.58
38038;BME280;23843;51.320;12.340;2022-10-31T15:45:04;100670.41;;;18.02;77.75
38038;BME280;23843;51.320;12.340;2022-10-31T15:50:49;100654.13;;;17.93;78.71
38038;BME280;23843;51.320;12.340;2022-10-31T15:53:32;100661.69;;;17.88;79.05
38038;BME280;23843;51.320;12.340;2022-10-31T15:58:55;100660.53;;;17.80;79.43
38038;BME280;23843;51.320;12.340;2022-10-31T16:01:23;100658.34;;;17.73;79.95
38038;BME280;23843;51.320;12.340;2022-10-31T16:04:01;100655.31;;;17.67;80.82
38038;BME280;23843;51.320;12.340;2022-10-31T16:06:51;100650.44;;;17.61;81.38
38038;BME280;23843;51.320;12.340;2022-10-31T16:09:23;100648.13;;;17.56;82.47
38038;BME280;23843;51.320;12.340;2022-10-31T16:11:52;100648.34;;;17.53;81.89
38038;BME280;23843;51.320;12.340;2022-10-31T16:14:33;100639.72;;;17.49;81.72
38038;BME280;23843;51.320;12.340;2022-10-31T16:17:12;100642.63;;;17.46;82.46
38038;BME280;23843;51.320;12.340;2022-10-31T16:19:47;100632.38;;;17.40;83.96
38038;BME280;23843;51.320;12.340;2022-10-31T16:25:42;100642.13;;;17.30;83.46
38038;BME280;23843;51.320;12.340;2022-10-31T16:28:49;100645.78;;;17.29;83.65
38038;BME280;23843;51.320;12.340;2022-10-31T16:34:36;100631.88;;;17.24;83.90
38038;BME280;23843;51.320;12.340;2022-10-31T16:37:04;100640.03;;;17.22;83.52
38038;BME280;23843;51.320;12.340;2022-10-31T16:43:28;100643.31;;;17.15;86.47
38038;BME280;23843;51.320;12.340;2022-10-31T16:48:59;100635.88;;;17.07;87.59
38038;BME280;23843;51.320;12.340;2022-10-31T16:51:28;100646.69;;;17.05;89.02
38038;BME280;23843;51.320;12.340;2022-10-31T16:54:07;100645.34;;;17.00;90.78
38038;BME280;23843;51.320;12.340;2022-10-31T16:57:56;100639.72;;;16.92;90.62
38038;BME280;23843;51.320;12.340;2022-10-31T16:59:40;100647.13;;;16.88;90.85
38038;BME280;23843;51.320;12.340;2022-10-31T17:02:12;100638.38;;;16.86;90.69
38038;BME280;23843;51.320;12.340;2022-10-31T17:04:39;100639.78;;;16.79;92.28
38038;BME280;23843;51.320;12.340;2022-10-31T17:09:33;100631.53;;;16.82;89.57
38038;BME280;23843;51.320;12.340;2022-10-31T17:11:59;100633.34;;;16.81;90.26
38038;BME280;23843;51.320;12.340;2022-10-31T17:14:24;100628.13;;;16.80;90.05
38038;BME280;23843;51.320;12.340;2022-10-31T17:16:50;100626.41;;;16.79;89.59
38038;BME280;23843;51.320;12.340;2022-10-31T17:19:15;100620.63;;;16.72;91.77
38038;BME280;23843;51.320;12.340;2022-10-31T17:21:41;100621.63;;;16.71;91.62
38038;BME280;23843;51.320;12.340;2022-10-31T17:24:11;100634.59;;;16.64;92.91
38038;BME280;23843;51.320;12.340;2022-10-31T17:26:37;100635.69;;;16.62;93.02
38038;BME280;23843;51.320;12.340;2022-10-31T17:29:02;100635.91;;;16.59;92.40
38038;BME280;23843;51.320;12.340;2022-10-31T17:31:30;100634.09;;;16.59;91.29
38038;BME280;23843;51.320;12.340;2022-10-31T17:33:55;100629.72;;;16.58;89.98
38038;BME280;23843;51.320;12.340;2022-10-31T17:36:21;100631.31;;;16.61;89.60
38038;BME280;23843;51.320;12.340;2022-10-31T17:38:46;100640.94;;;16.63;89.67
38038;BME280;23843;51.320;12.340;2022-10-31T17:41:13;100624.88;;;16.63;90.22
38038;BME280;23843;51.320;12.340;2022-10-31T17:43:38;100632.91;;;16.63;88.89
38038;BME280;23843;51.320;12.340;2022-10-31T17:46:04;100627.75;;;16.60;89.53
38038;BME280;23843;51.320;12.340;2022-10-31T17:48:29;100627.91;;;16.59;90.94
38038;BME280;23843;51.320;12.340;2022-10-31T17:50:58;100619.22;;;16.55;90.23
38038;BME280;23843;51.320;12.340;2022-10-31T17:53:24;100621.91;;;16.55;89.70
38038;BME280;23843;51.320;12.340;2022-10-31T17:55:49;100617.13;;;16.47;91.87
38038;BME280;23843;51.320;12.340;2022-10-31T17:58:16;100623.81;;;16.42;93.00
38038;BME280;23843;51.320;12.340;2022-10-31T18:00:41;100618.91;;;16.36;92.44
38038;BME280;23843;51.320;12.340;2022-10-31T18:03:07;100612.28;;;16.29;95.70
38038;BME280;23843;51.320;12.340;2022-10-31T18:05:32;100610.84;;;16.24;94.87
38038;BME280;23843;51.320;12.340;2022-10-31T18:07:58;100607.66;;;16.19;96.46
38038;BME280;23843;51.320;12.340;2022-10-31T18:10:23;100607.84;;;16.16;97.45
38038;BME280;23843;51.320;12.340;2022-10-31T18:12:49;100604.47;;;16.14;96.01
38038;BME280;23843;51.320;12.340;2022-10-31T18:15:17;100604.91;;;16.08;98.35
38038;BME280;23843;51.320;12.340;2022-10-31T18:17:42;100605.97;;;16.05;98.20
38038;BME280;23843;51.320;12.340;2022-10-31T18:20:09;100600.75;;;16.04;97.86
38038;BME280;23843;51.320;12.340;2022-10-31T18:22:35;100603.41;;;16.04;96.31
38038;BME280;23843;51.320;12.340;2022-10-31T18:25:01;100604.50;;;16.01;98.13
38038;BME280;23843;51.320;12.340;2022-10-31T18:27:26;100600.00;;;16.02;96.49
38038;BME280;23843;51.320;12.340;2022-10-31T18:29:51;100603.41;;;16.04;95.31
38038;BME280;23843;51.320;12.340;2022-10-31T18:32:18;100592.63;;;16.05;95.16
38038;BME280;23843;51.320;12.340;2022-10-31T18:34:44;100596.38;;;16.03;97.33
38038;BME280;23843;51.320;12.340;2022-10-31T18:37:09;100587.94;;;15.96;98.75
38038;BME280;23843;51.320;12.340;2022-10-31T18:39:34;100573.00;;;15.94;98.05
38038;BME280;23843;51.320;12.340;2022-10-31T18:42:00;100573.00;;;15.94;98.52
38038;BME280;23843;51.320;12.340;2022-10-31T18:44:25;100572.03;;;15.95;97.60
38038;BME280;23843;51.320;12.340;2022-10-31T18:46:51;100568.50;;;15.94;97.63
38038;BME280;23843;51.320;12.340;2022-10-31T18:49:17;100569.56;;;15.92;97.64
38038;BME280;23843;51.320;12.340;2022-10-31T18:51:43;100567.66;;;15.94;95.96